sensor_id;sensor_type;location;lat;lon;timestamp;temperature;humidity
18998;DHT22;9632;51.018;4.284;2024-01-06T00:00:18;9.50;99.90
18998;DHT22;9632;51.018;4.284;2024-01-06T00:02:46;9.50;99.90
18998;DHT22;9632;51.018;4.284;2024-01-06T00:05:12;9.50;99.90
18998;DHT22;9632;51.018;4.284;2024-01-06T00:07:38;9.50;99.90
18998;DHT22;9632;51.018;4.284;2024-01-06T00:10:03;9.50;99.90
18998;DHT22;9632;51.018;4.284;2024-01-06T00:12:29;9.50;99.90
18998;DHT22;9632;51.018;4.284;2024-01-06T00:14:55;9.60;99.90
18998;DHT22;9632;51.018;4.284;2024-01-06T00:17:21;9.50;99.90
18998;DHT22;9632;51.018;4.284;2024-01-06T00:19:46;9.50;99.90
18998;DHT22;9632;51.018;4.284;2024-01-06T00:22:16;9.50;99.90
18998;DHT22;9632;51.018;4.284;2024-01-06T00:24:42;9.50;99.90
18998;DHT22;9632;51.018;4.284;2024-01-06T00:27:07;9.50;99.90
18998;DHT22;9632;51.018;4.284;2024-01-06T00:29:33;9.50;99.90
18998;DHT22;9632;51.018;4.284;2024-01-06T00:31:59;9.40;99.90
18998;DHT22;9632;51.018;4.284;2024-01-06T00:34:25;9.50;99.90
18998;DHT22;9632;51.018;4.284;2024-01-06T00:36:50;9.50;99.90
18998;DHT22;9632;51.018;4.284;2024-01-06T00:39:16;9.50;99.90
18998;DHT22;9632;51.018;4.284;2024-01-06T00:41:41;9.50;99.90
18998;DHT22;9632;51.018;4.284;2024-01-06T00:44:07;9.60;99.90
18998;DHT22;9632;51.018;4.284;2024-01-06T00:46:33;9.50;99.90
18998;DHT22;9632;51.018;4.284;2024-01-06T00:48:58;9.50;99.90
18998;DHT22;9632;51.018;4.284;2024-01-06T00:51:24;9.50;99.90
18998;DHT22;9632;51.018;4.284;2024-01-06T00:53:50;9.50;99.90
18998;DHT22;9632;51.018;4.284;2024-01-06T00:56:16;9.40;99.90
18998;DHT22;9632;51.018;4.284;2024-01-06T00:58:41;9.40;99.90
18998;DHT22;9632;51.018;4.284;2024-01-06T01:01:07;9.40;99.90
18998;DHT22;9632;51.018;4.284;2024-01-06T01:03:33;9.40;99.90
18998;DHT22;9632;51.018;4.284;2024-01-06T01:05:58;9.40;99.90
18998;DHT22;9632;51.018;4.284;2024-01-06T01:08:24;9.40;99.90
18998;DHT22;9632;51.018;4.284;2024-01-06T01:10:49;9.40;99.90
18998;DHT22;9632;51.018;4.284;2024-01-06T01:13:15;9.40;99.90
18998;DHT22;9632;51.018;4.284;2024-01-06T01:15:41;9.50;99.90
18998;DHT22;9632;51.018;4.284;2024-01-06T01:18:06;9.40;99.90
18998;DHT22;9632;51.018;4.284;2024-01-06T01:20:32;9.50;99.90
18998;DHT22;9632;51.018;4.284;2024-01-06T01:22:58;9.50;99.90
18998;DHT22;9632;51.018;4.284;2024-01-06T01:25:23;9.40;99.90
18998;DHT22;9632;51.018;4.284;2024-01-06T01:27:49;9.40;99.90
18998;DHT22;9632;51.018;4.284;2024-01-06T01:30:14;9.40;99.90
18998;DHT22;9632;51.018;4.284;2024-01-06T01:32:40;9.40;99.90
18998;DHT22;9632;51.018;4.284;2024-01-06T01:35:06;9.40;99.90
18998;DHT22;9632;51.018;4.284;2024-01-06T01:37:32;9.40;99.90
18998;DHT22;9632;51.018;4.284;2024-01-06T01:39:57;9.40;99.90
18998;DHT22;9632;51.018;4.284;2024-01-06T01:42:23;9.50;99.90
18998;DHT22;9632;51.018;4.284;2024-01-06T01:44:48;9.50;99.90
18998;DHT22;9632;51.018;4.284;2024-01-06T01:47:14;9.50;99.90
18998;DHT22;9632;51.018;4.284;2024-01-06T01:49:46;9.50;99.90
18998;DHT22;9632;51.018;4.284;2024-01-06T01:52:13;9.50;99.90
18998;DHT22;9632;51.018;4.284;2024-01-06T01:54:40;9.50;99.90
18998;DHT22;9632;51.018;4.284;2024-01-06T01:57:07;9.50;99.90
18998;DHT22;9632;51.018;4.284;2024-01-06T01:59:33;9.50;99.90
18998;DHT22;9632;51.018;4.284;2024-01-06T02:02:00;9.50;99.90
18998;DHT22;9632;51.018;4.284;2024-01-06T02:04:27;9.50;99.90
18998;DHT22;9632;51.018;4.284;2024-01-06T02:06:52;9.50;99.90
18998;DHT22;9632;51.018;4.284;2024-01-06T02:09:18;9.50;99.90
18998;DHT22;9632;51.018;4.284;2024-01-06T02:11:44;9.50;99.90
18998;DHT22;9632;51.018;4.284;2024-01-06T02:14:09;9.40;99.90
18998;DHT22;9632;51.018;4.284;2024-01-06T02:16:35;9.50;99.90
18998;DHT22;9632;51.018;4.284;2024-01-06T02:19:01;9.50;99.90
18998;DHT22;9632;51.018;4.284;2024-01-06T02:21:28;9.50;99.90
18998;DHT22;9632;51.018;4.284;2024-01-06T02:23:54;9.50;99.90
18998;DHT22;9632;51.018;4.284;2024-01-06T02:26:20;9.50;99.90
18998;DHT22;9632;51.018;4.284;2024-01-06T02:28:45;9.50;99.90
18998;DHT22;9632;51.018;4.284;2024-01-06T02:31:14;9.50;99.90
18998;DHT22;9632;51.018;4.284;2024-01-06T02:33:40;9.50;99.90
18998;DHT22;9632;51.018;4.284;2024-01-06T02:36:06;9.60;99.90
18998;DHT22;9632;51.018;4.284;2024-01-06T02:38:31;9.60;99.90
18998;DHT22;9632;51.018;4.284;2024-01-06T02:40:57;9.60;99.90
18998;DHT22;9632;51.018;4.284;2024-01-06T02:43:23;9.60;99.90
18998;DHT22;9632;51.018;4.284;2024-01-06T02:45:48;9.60;99.90
18998;DHT22;9632;51.018;4.284;2024-01-06T02:48:16;9.60;99.90
18998;DHT22;9632;51.018;4.284;2024-01-06T02:50:41;9.50;99.90
18998;DHT22;9632;51.018;4.284;2024-01-06T02:53:08;9.50;99.90
18998;DHT22;9632;51.018;4.284;2024-01-06T02:55:35;9.50;99.90
18998;DHT22;9632;51.018;4.284;2024-01-06T02:58:00;9.50;99.90
18998;DHT22;9632;51.018;4.284;2024-01-06T03:00:26;9.50;99.90
18998;DHT22;9632;51.018;4.284;2024-01-06T03:02:52;9.50;99.90
18998;DHT22;9632;51.018;4.284;2024-01-06T03:05:17;9.50;99.90
18998;DHT22;9632;51.018;4.284;2024-01-06T03:07:43;9.50;99.90
18998;DHT22;9632;51.018;4.284;2024-01-06T03:10:09;9.50;99.90
18998;DHT22;9632;51.018;4.284;2024-01-06T03:12:35;9.60;99.90
18998;DHT22;9632;51.018;4.284;2024-01-06T03:15:01;9.60;99.90
18998;DHT22;9632;51.018;4.284;2024-01-06T03:17:26;9.70;99.90
18998;DHT22;9632;51.018;4.284;2024-01-06T03:19:54;9.60;99.90
18998;DHT22;9632;51.018;4.284;2024-01-06T03:22:20;9.70;99.90
18998;DHT22;9632;51.018;4.284;2024-01-06T03:24:45;9.70;99.90
18998;DHT22;9632;51.018;4.284;2024-01-06T03:27:11;9.70;99.90
18998;DHT22;9632;51.018;4.284;2024-01-06T03:29:38;9.70;99.90
18998;DHT22;9632;51.018;4.284;2024-01-06T03:32:04;9.70;99.90
18998;DHT22;9632;51.018;4.284;2024-01-06T03:34:29;9.70;99.90
18998;DHT22;9632;51.018;4.284;2024-01-06T03:36:55;9.70;99.90
18998;DHT22;9632;51.018;4.284;2024-01-06T03:39:21;9.70;99.90
18998;DHT22;9632;51.018;4.284;2024-01-06T03:41:48;9.70;99.90
18998;DHT22;9632;51.018;4.284;2024-01-06T03:44:14;9.70;99.90
18998;DHT22;9632;51.018;4.284;2024-01-06T03:46:40;9.70;99.90
18998;DHT22;9632;51.018;4.284;2024-01-06T03:49:05;9.70;99.90
18998;DHT22;9632;51.018;4.284;2024-01-06T03:51:31;9.80;99.90
18998;DHT22;9632;51.018;4.284;2024-01-06T03:53:57;9.80;99.90
18998;DHT22;9632;51.018;4.284;2024-01-06T03:56:22;9.80;99.90
18998;DHT22;9632;51.018;4.284;2024-01-06T03:58:48;9.80;99.90
18998;DHT22;9632;51.018;4.284;2024-01-06T04:01:14;9.70;99.90
18998;DHT22;9632;51.018;4.284;2024-01-06T04:03:39;9.70;99.90
18998;DHT22;9632;51.018;4.284;2024-01-06T04:06:08;9.70;99.90
18998;DHT22;9632;51.018;4.284;2024-01-06T04:08:35;9.80;99.90
18998;DHT22;9632;51.018;4.284;2024-01-06T04:11:01;9.70;99.90
18998;DHT22;9632;51.018;4.284;2024-01-06T04:13:27;9.70;99.90
18998;DHT22;9632;51.018;4.284;2024-01-06T04:15:53;9.70;99.90
18998;DHT22;9632;51.018;4.284;2024-01-06T04:18:19;9.70;99.90
18998;DHT22;9632;51.018;4.284;2024-01-06T04:20:45;9.60;99.90
18998;DHT22;9632;51.018;4.284;2024-01-06T04:23:10;9.60;99.90
18998;DHT22;9632;51.018;4.284;2024-01-06T04:25:36;9.60;99.90
18998;DHT22;9632;51.018;4.284;2024-01-06T04:28:02;9.60;99.90
18998;DHT22;9632;51.018;4.284;2024-01-06T04:30:28;9.60;99.90
18998;DHT22;9632;51.018;4.284;2024-01-06T04:32:54;9.60;99.90
18998;DHT22;9632;51.018;4.284;2024-01-06T04:35:20;9.60;99.90
18998;DHT22;9632;51.018;4.284;2024-01-06T04:37:46;9.60;99.90
18998;DHT22;9632;51.018;4.284;2024-01-06T04:40:13;9.60;99.90
18998;DHT22;9632;51.018;4.284;2024-01-06T04:42:38;9.60;99.90
18998;DHT22;9632;51.018;4.284;2024-01-06T04:45:04;9.60;99.90
18998;DHT22;9632;51.018;4.284;2024-01-06T04:47:30;9.60;99.90
18998;DHT22;9632;51.018;4.284;2024-01-06T04:49:56;9.60;99.90
18998;DHT22;9632;51.018;4.284;2024-01-06T04:52:22;9.70;99.90
18998;DHT22;9632;51.018;4.284;2024-01-06T04:54:48;9.60;99.90
18998;DHT22;9632;51.018;4.284;2024-01-06T04:57:14;9.60;99.90
18998;DHT22;9632;51.018;4.284;2024-01-06T04:59:41;9.50;99.90
18998;DHT22;9632;51.018;4.284;2024-01-06T05:02:07;9.50;99.90
18998;DHT22;9632;51.018;4.284;2024-01-06T05:04:33;9.50;99.90
18998;DHT22;9632;51.018;4.284;2024-01-06T05:06:58;9.50;99.90
18998;DHT22;9632;51.018;4.284;2024-01-06T05:09:25;9.40;99.90
18998;DHT22;9632;51.018;4.284;2024-01-06T05:11:51;9.40;99.90
18998;DHT22;9632;51.018;4.284;2024-01-06T05:14:16;9.40;99.90
18998;DHT22;9632;51.018;4.284;2024-01-06T05:16:42;9.40;99.90
18998;DHT22;9632;51.018;4.284;2024-01-06T05:19:08;9.50;99.90
18998;DHT22;9632;51.018;4.284;2024-01-06T05:21:34;9.30;99.90
18998;DHT22;9632;51.018;4.284;2024-01-06T05:24:00;9.30;99.90
18998;DHT22;9632;51.018;4.284;2024-01-06T05:26:26;9.30;99.90
18998;DHT22;9632;51.018;4.284;2024-01-06T05:28:52;9.30;99.90
18998;DHT22;9632;51.018;4.284;2024-01-06T05:31:18;9.30;99.90
18998;DHT22;9632;51.018;4.284;2024-01-06T05:33:44;9.30;99.90
18998;DHT22;9632;51.018;4.284;2024-01-06T05:36:09;9.30;99.90
18998;DHT22;9632;51.018;4.284;2024-01-06T05:38:38;9.30;99.90
18998;DHT22;9632;51.018;4.284;2024-01-06T05:41:04;9.30;99.90
18998;DHT22;9632;51.018;4.284;2024-01-06T05:43:29;9.30;99.90
18998;DHT22;9632;51.018;4.284;2024-01-06T05:45:55;9.30;99.90
18998;DHT22;9632;51.018;4.284;2024-01-06T05:48:20;9.30;99.90
18998;DHT22;9632;51.018;4.284;2024-01-06T05:50:46;9.20;99.90
18998;DHT22;9632;51.018;4.284;2024-01-06T05:53:12;9.10;99.90
18998;DHT22;9632;51.018;4.284;2024-01-06T05:55:39;9.10;99.90
18998;DHT22;9632;51.018;4.284;2024-01-06T05:58:05;9.00;99.90
18998;DHT22;9632;51.018;4.284;2024-01-06T06:00:30;9.10;99.90
18998;DHT22;9632;51.018;4.284;2024-01-06T06:02:59;9.10;99.90
18998;DHT22;9632;51.018;4.284;2024-01-06T06:05:25;9.00;99.90
18998;DHT22;9632;51.018;4.284;2024-01-06T06:07:51;9.00;99.90
18998;DHT22;9632;51.018;4.284;2024-01-06T06:10:16;9.00;99.90
18998;DHT22;9632;51.018;4.284;2024-01-06T06:12:44;9.00;99.90
18998;DHT22;9632;51.018;4.284;2024-01-06T06:15:10;8.90;99.90
18998;DHT22;9632;51.018;4.284;2024-01-06T06:17:36;8.90;99.90
18998;DHT22;9632;51.018;4.284;2024-01-06T06:20:02;8.80;99.90
18998;DHT22;9632;51.018;4.284;2024-01-06T06:22:28;8.80;99.90
18998;DHT22;9632;51.018;4.284;2024-01-06T06:25:00;8.70;99.90
18998;DHT22;9632;51.018;4.284;2024-01-06T06:27:25;8.80;99.90
18998;DHT22;9632;51.018;4.284;2024-01-06T06:29:52;8.80;99.90
18998;DHT22;9632;51.018;4.284;2024-01-06T06:32:18;8.80;99.90
18998;DHT22;9632;51.018;4.284;2024-01-06T06:34:43;8.70;99.90
18998;DHT22;9632;51.018;4.284;2024-01-06T06:37:09;8.60;99.90
18998;DHT22;9632;51.018;4.284;2024-01-06T06:39:35;8.50;99.90
18998;DHT22;9632;51.018;4.284;2024-01-06T06:42:02;8.50;99.90
18998;DHT22;9632;51.018;4.284;2024-01-06T06:44:28;8.50;99.90
18998;DHT22;9632;51.018;4.284;2024-01-06T06:46:55;8.50;99.90
18998;DHT22;9632;51.018;4.284;2024-01-06T06:49:20;8.50;99.90
18998;DHT22;9632;51.018;4.284;2024-01-06T06:51:46;8.50;99.90
18998;DHT22;9632;51.018;4.284;2024-01-06T06:54:17;8.50;99.90
18998;DHT22;9632;51.018;4.284;2024-01-06T06:56:43;8.40;99.90
18998;DHT22;9632;51.018;4.284;2024-01-06T06:59:08;8.50;99.90
18998;DHT22;9632;51.018;4.284;2024-01-06T07:01:34;8.50;99.90
18998;DHT22;9632;51.018;4.284;2024-01-06T07:04:01;8.40;99.90
18998;DHT22;9632;51.018;4.284;2024-01-06T07:06:27;8.40;99.90
18998;DHT22;9632;51.018;4.284;2024-01-06T07:08:54;8.40;99.90
18998;DHT22;9632;51.018;4.284;2024-01-06T07:11:20;8.40;99.90
18998;DHT22;9632;51.018;4.284;2024-01-06T07:13:45;8.50;99.90
18998;DHT22;9632;51.018;4.284;2024-01-06T07:16:11;8.40;99.90
18998;DHT22;9632;51.018;4.284;2024-01-06T07:18:39;8.40;99.90
18998;DHT22;9632;51.018;4.284;2024-01-06T07:21:05;8.50;99.90
18998;DHT22;9632;51.018;4.284;2024-01-06T07:23:34;8.40;99.90
18998;DHT22;9632;51.018;4.284;2024-01-06T07:26:00;8.40;99.90
18998;DHT22;9632;51.018;4.284;2024-01-06T07:28:26;8.40;99.90
18998;DHT22;9632;51.018;4.284;2024-01-06T07:30:52;8.50;99.90
18998;DHT22;9632;51.018;4.284;2024-01-06T07:33:18;8.50;99.90
18998;DHT22;9632;51.018;4.284;2024-01-06T07:35:43;8.40;99.90
18998;DHT22;9632;51.018;4.284;2024-01-06T07:38:10;8.40;99.90
18998;DHT22;9632;51.018;4.284;2024-01-06T07:40:36;8.40;99.90
18998;DHT22;9632;51.018;4.284;2024-01-06T07:43:02;8.40;99.90
18998;DHT22;9632;51.018;4.284;2024-01-06T07:45:28;8.40;99.90
18998;DHT22;9632;51.018;4.284;2024-01-06T07:47:53;8.40;99.90
18998;DHT22;9632;51.018;4.284;2024-01-06T07:50:19;8.50;99.90
18998;DHT22;9632;51.018;4.284;2024-01-06T07:52:44;8.50;99.90
18998;DHT22;9632;51.018;4.284;2024-01-06T07:55:10;8.50;99.90
18998;DHT22;9632;51.018;4.284;2024-01-06T07:57:36;8.50;99.90
18998;DHT22;9632;51.018;4.284;2024-01-06T08:00:01;8.60;99.90
18998;DHT22;9632;51.018;4.284;2024-01-06T08:02:27;8.60;99.90
18998;DHT22;9632;51.018;4.284;2024-01-06T08:04:53;8.60;99.90
18998;DHT22;9632;51.018;4.284;2024-01-06T08:07:21;8.60;99.90
18998;DHT22;9632;51.018;4.284;2024-01-06T08:09:47;8.60;99.90
18998;DHT22;9632;51.018;4.284;2024-01-06T08:12:13;8.60;99.90
18998;DHT22;9632;51.018;4.284;2024-01-06T08:14:38;8.60;99.90
18998;DHT22;9632;51.018;4.284;2024-01-06T08:17:04;8.70;99.90
18998;DHT22;9632;51.018;4.284;2024-01-06T08:19:30;8.60;99.90
18998;DHT22;9632;51.018;4.284;2024-01-06T08:21:57;8.60;99.90
18998;DHT22;9632;51.018;4.284;2024-01-06T08:24:23;8.40;99.90
18998;DHT22;9632;51.018;4.284;2024-01-06T08:26:50;8.40;99.90
18998;DHT22;9632;51.018;4.284;2024-01-06T08:29:16;8.30;99.90
18998;DHT22;9632;51.018;4.284;2024-01-06T08:31:42;8.30;99.90
18998;DHT22;9632;51.018;4.284;2024-01-06T08:34:08;8.20;99.90
18998;DHT22;9632;51.018;4.284;2024-01-06T08:36:34;8.10;99.90
18998;DHT22;9632;51.018;4.284;2024-01-06T08:39:00;8.10;99.90
18998;DHT22;9632;51.018;4.284;2024-01-06T08:41:26;7.90;99.90
18998;DHT22;9632;51.018;4.284;2024-01-06T08:43:51;7.80;99.90
18998;DHT22;9632;51.018;4.284;2024-01-06T08:46:17;7.80;99.90
18998;DHT22;9632;51.018;4.284;2024-01-06T08:48:43;7.80;99.90
18998;DHT22;9632;51.018;4.284;2024-01-06T08:51:08;7.80;99.90
18998;DHT22;9632;51.018;4.284;2024-01-06T08:53:34;7.80;99.90
18998;DHT22;9632;51.018;4.284;2024-01-06T08:56:00;7.80;99.90
18998;DHT22;9632;51.018;4.284;2024-01-06T08:58:25;7.80;99.90
18998;DHT22;9632;51.018;4.284;2024-01-06T09:00:51;7.90;99.90
18998;DHT22;9632;51.018;4.284;2024-01-06T09:03:19;7.90;99.90
18998;DHT22;9632;51.018;4.284;2024-01-06T09:05:51;7.80;99.90
18998;DHT22;9632;51.018;4.284;2024-01-06T09:08:17;7.80;99.90
18998;DHT22;9632;51.018;4.284;2024-01-06T09:10:43;7.80;99.90
18998;DHT22;9632;51.018;4.284;2024-01-06T09:13:09;7.70;99.90
18998;DHT22;9632;51.018;4.284;2024-01-06T09:15:35;7.80;99.90
18998;DHT22;9632;51.018;4.284;2024-01-06T09:18:01;7.80;99.90
18998;DHT22;9632;51.018;4.284;2024-01-06T09:20:28;7.80;99.90
18998;DHT22;9632;51.018;4.284;2024-01-06T09:22:53;7.80;99.90
18998;DHT22;9632;51.018;4.284;2024-01-06T09:25:19;7.80;99.90
18998;DHT22;9632;51.018;4.284;2024-01-06T09:27:45;7.70;99.90
18998;DHT22;9632;51.018;4.284;2024-01-06T09:30:11;7.70;99.90
18998;DHT22;9632;51.018;4.284;2024-01-06T09:32:36;7.70;99.90
18998;DHT22;9632;51.018;4.284;2024-01-06T09:35:02;7.70;99.90
18998;DHT22;9632;51.018;4.284;2024-01-06T09:37:29;7.60;99.90
18998;DHT22;9632;51.018;4.284;2024-01-06T09:39:54;7.60;99.90
18998;DHT22;9632;51.018;4.284;2024-01-06T09:42:20;7.60;99.90
18998;DHT22;9632;51.018;4.284;2024-01-06T09:44:46;7.60;99.90
18998;DHT22;9632;51.018;4.284;2024-01-06T09:47:12;7.70;99.90
18998;DHT22;9632;51.018;4.284;2024-01-06T09:49:38;7.70;99.90
18998;DHT22;9632;51.018;4.284;2024-01-06T09:52:14;7.80;99.90
18998;DHT22;9632;51.018;4.284;2024-01-06T09:54:51;7.80;99.90
18998;DHT22;9632;51.018;4.284;2024-01-06T09:57:17;7.80;99.90
18998;DHT22;9632;51.018;4.284;2024-01-06T09:59:46;7.80;99.90
18998;DHT22;9632;51.018;4.284;2024-01-06T10:02:16;7.80;99.90
18998;DHT22;9632;51.018;4.284;2024-01-06T10:04:43;7.80;99.90
18998;DHT22;9632;51.018;4.284;2024-01-06T10:07:10;7.80;99.90
18998;DHT22;9632;51.018;4.284;2024-01-06T10:09:38;7.90;99.90
18998;DHT22;9632;51.018;4.284;2024-01-06T10:12:04;7.90;99.90
18998;DHT22;9632;51.018;4.284;2024-01-06T10:14:30;7.90;99.90
18998;DHT22;9632;51.018;4.284;2024-01-06T10:16:55;8.00;99.90
18998;DHT22;9632;51.018;4.284;2024-01-06T10:19:23;8.00;99.90
18998;DHT22;9632;51.018;4.284;2024-01-06T10:21:49;8.00;99.90
18998;DHT22;9632;51.018;4.284;2024-01-06T10:24:17;8.00;99.90
18998;DHT22;9632;51.018;4.284;2024-01-06T10:26:45;7.90;99.90
18998;DHT22;9632;51.018;4.284;2024-01-06T10:29:11;7.90;99.90
18998;DHT22;9632;51.018;4.284;2024-01-06T10:31:38;7.90;99.90
18998;DHT22;9632;51.018;4.284;2024-01-06T10:34:04;7.80;99.90
18998;DHT22;9632;51.018;4.284;2024-01-06T10:36:31;7.80;99.90
18998;DHT22;9632;51.018;4.284;2024-01-06T10:38:57;7.80;99.90
18998;DHT22;9632;51.018;4.284;2024-01-06T10:41:24;7.80;99.90
18998;DHT22;9632;51.018;4.284;2024-01-06T10:43:51;7.80;99.90
18998;DHT22;9632;51.018;4.284;2024-01-06T10:46:19;7.80;99.90
18998;DHT22;9632;51.018;4.284;2024-01-06T10:48:46;7.70;99.90
18998;DHT22;9632;51.018;4.284;2024-01-06T10:51:13;7.70;99.90
18998;DHT22;9632;51.018;4.284;2024-01-06T10:53:42;7.70;99.90
18998;DHT22;9632;51.018;4.284;2024-01-06T10:56:09;7.70;99.90
18998;DHT22;9632;51.018;4.284;2024-01-06T10:58:48;7.60;99.90
18998;DHT22;9632;51.018;4.284;2024-01-06T11:01:21;7.70;99.90
18998;DHT22;9632;51.018;4.284;2024-01-06T11:03:48;7.70;99.90
18998;DHT22;9632;51.018;4.284;2024-01-06T11:06:14;7.70;99.90
18998;DHT22;9632;51.018;4.284;2024-01-06T11:09:07;7.70;99.90
18998;DHT22;9632;51.018;4.284;2024-01-06T11:11:35;7.70;99.90
18998;DHT22;9632;51.018;4.284;2024-01-06T11:14:25;7.70;99.90
18998;DHT22;9632;51.018;4.284;2024-01-06T11:16:52;7.60;99.90
18998;DHT22;9632;51.018;4.284;2024-01-06T11:24:53;7.60;99.90
18998;DHT22;9632;51.018;4.284;2024-01-06T11:27:24;7.60;99.90
18998;DHT22;9632;51.018;4.284;2024-01-06T11:29:57;7.60;99.90
18998;DHT22;9632;51.018;4.284;2024-01-06T11:32:37;7.60;99.90
18998;DHT22;9632;51.018;4.284;2024-01-06T11:35:12;7.50;99.90
18998;DHT22;9632;51.018;4.284;2024-01-06T11:40:31;7.50;99.90
18998;DHT22;9632;51.018;4.284;2024-01-06T11:42:58;7.40;99.90
18998;DHT22;9632;51.018;4.284;2024-01-06T11:45:25;7.50;99.90
18998;DHT22;9632;51.018;4.284;2024-01-06T11:47:55;7.50;99.90
18998;DHT22;9632;51.018;4.284;2024-01-06T11:50:21;7.50;99.90
18998;DHT22;9632;51.018;4.284;2024-01-06T11:52:49;7.50;99.90
18998;DHT22;9632;51.018;4.284;2024-01-06T11:55:18;7.50;99.90
18998;DHT22;9632;51.018;4.284;2024-01-06T11:57:44;7.50;99.90
18998;DHT22;9632;51.018;4.284;2024-01-06T12:00:11;7.50;99.90
18998;DHT22;9632;51.018;4.284;2024-01-06T12:02:39;7.50;99.90
18998;DHT22;9632;51.018;4.284;2024-01-06T12:05:04;7.50;99.90
18998;DHT22;9632;51.018;4.284;2024-01-06T12:07:30;7.60;99.90
18998;DHT22;9632;51.018;4.284;2024-01-06T12:10:03;7.50;99.90
18998;DHT22;9632;51.018;4.284;2024-01-06T12:12:29;7.50;99.90
18998;DHT22;9632;51.018;4.284;2024-01-06T12:14:55;7.60;99.90
18998;DHT22;9632;51.018;4.284;2024-01-06T12:17:21;7.70;99.90
18998;DHT22;9632;51.018;4.284;2024-01-06T12:19:47;7.70;99.90
18998;DHT22;9632;51.018;4.284;2024-01-06T12:22:14;7.70;99.90
18998;DHT22;9632;51.018;4.284;2024-01-06T12:24:41;7.70;99.90
18998;DHT22;9632;51.018;4.284;2024-01-06T12:27:08;7.70;99.90
18998;DHT22;9632;51.018;4.284;2024-01-06T12:29:41;7.70;99.90
18998;DHT22;9632;51.018;4.284;2024-01-06T12:32:07;7.70;99.90
18998;DHT22;9632;51.018;4.284;2024-01-06T12:34:34;7.60;99.90
18998;DHT22;9632;51.018;4.284;2024-01-06T12:37:00;7.70;99.90
18998;DHT22;9632;51.018;4.284;2024-01-06T12:39:30;7.70;99.90
18998;DHT22;9632;51.018;4.284;2024-01-06T12:41:56;7.70;99.90
18998;DHT22;9632;51.018;4.284;2024-01-06T12:44:22;7.80;99.90
18998;DHT22;9632;51.018;4.284;2024-01-06T12:46:49;7.70;99.90
18998;DHT22;9632;51.018;4.284;2024-01-06T12:49:14;7.80;99.90
18998;DHT22;9632;51.018;4.284;2024-01-06T12:51:40;7.80;99.90
18998;DHT22;9632;51.018;4.284;2024-01-06T12:54:06;7.70;99.90
18998;DHT22;9632;51.018;4.284;2024-01-06T12:56:31;7.80;99.90
18998;DHT22;9632;51.018;4.284;2024-01-06T12:58:57;7.80;99.90
18998;DHT22;9632;51.018;4.284;2024-01-06T13:01:22;7.80;99.90
18998;DHT22;9632;51.018;4.284;2024-01-06T13:03:48;7.80;99.90
18998;DHT22;9632;51.018;4.284;2024-01-06T13:06:14;7.80;99.90
18998;DHT22;9632;51.018;4.284;2024-01-06T13:08:42;7.90;99.90
18998;DHT22;9632;51.018;4.284;2024-01-06T13:11:08;7.90;99.90
18998;DHT22;9632;51.018;4.284;2024-01-06T13:13:34;7.80;99.90
18998;DHT22;9632;51.018;4.284;2024-01-06T13:16:00;7.80;99.90
18998;DHT22;9632;51.018;4.284;2024-01-06T13:18:28;7.80;99.90
18998;DHT22;9632;51.018;4.284;2024-01-06T13:20:54;7.80;99.90
18998;DHT22;9632;51.018;4.284;2024-01-06T13:23:20;7.90;99.90
18998;DHT22;9632;51.018;4.284;2024-01-06T13:25:45;7.70;99.90
18998;DHT22;9632;51.018;4.284;2024-01-06T13:28:11;7.80;99.90
18998;DHT22;9632;51.018;4.284;2024-01-06T13:30:37;7.80;99.90
18998;DHT22;9632;51.018;4.284;2024-01-06T13:33:05;7.80;99.90
18998;DHT22;9632;51.018;4.284;2024-01-06T13:35:31;7.80;99.90
18998;DHT22;9632;51.018;4.284;2024-01-06T13:37:56;7.70;99.90
18998;DHT22;9632;51.018;4.284;2024-01-06T13:40:22;7.70;99.90
18998;DHT22;9632;51.018;4.284;2024-01-06T13:42:51;7.70;99.90
18998;DHT22;9632;51.018;4.284;2024-01-06T13:45:18;7.70;99.90
18998;DHT22;9632;51.018;4.284;2024-01-06T13:47:44;7.70;99.90
18998;DHT22;9632;51.018;4.284;2024-01-06T13:50:13;7.70;99.90
18998;DHT22;9632;51.018;4.284;2024-01-06T13:52:39;7.70;99.90
18998;DHT22;9632;51.018;4.284;2024-01-06T13:55:05;7.80;99.90
18998;DHT22;9632;51.018;4.284;2024-01-06T13:57:32;7.80;99.90
18998;DHT22;9632;51.018;4.284;2024-01-06T13:59:58;7.80;99.90
18998;DHT22;9632;51.018;4.284;2024-01-06T14:02:24;7.90;99.90
18998;DHT22;9632;51.018;4.284;2024-01-06T14:04:50;7.70;99.90
18998;DHT22;9632;51.018;4.284;2024-01-06T14:07:16;7.50;99.90
18998;DHT22;9632;51.018;4.284;2024-01-06T14:09:45;7.40;99.90
18998;DHT22;9632;51.018;4.284;2024-01-06T14:12:11;7.50;99.90
18998;DHT22;9632;51.018;4.284;2024-01-06T14:14:37;7.50;99.90
18998;DHT22;9632;51.018;4.284;2024-01-06T14:17:03;7.50;99.90
18998;DHT22;9632;51.018;4.284;2024-01-06T14:19:28;7.40;99.90
18998;DHT22;9632;51.018;4.284;2024-01-06T14:21:54;7.50;99.90
18998;DHT22;9632;51.018;4.284;2024-01-06T14:24:20;7.50;99.90
18998;DHT22;9632;51.018;4.284;2024-01-06T14:26:50;7.50;99.90
18998;DHT22;9632;51.018;4.284;2024-01-06T14:29:16;7.60;99.90
18998;DHT22;9632;51.018;4.284;2024-01-06T14:31:43;7.60;99.90
18998;DHT22;9632;51.018;4.284;2024-01-06T14:34:09;7.60;99.90
18998;DHT22;9632;51.018;4.284;2024-01-06T14:36:35;7.50;99.90
18998;DHT22;9632;51.018;4.284;2024-01-06T14:39:00;7.40;99.90
18998;DHT22;9632;51.018;4.284;2024-01-06T14:41:26;7.40;99.90
18998;DHT22;9632;51.018;4.284;2024-01-06T14:43:52;7.30;99.90
18998;DHT22;9632;51.018;4.284;2024-01-06T14:46:18;7.30;99.90
18998;DHT22;9632;51.018;4.284;2024-01-06T14:48:46;7.20;99.90
18998;DHT22;9632;51.018;4.284;2024-01-06T14:51:12;7.20;99.90
18998;DHT22;9632;51.018;4.284;2024-01-06T14:53:38;7.10;99.90
18998;DHT22;9632;51.018;4.284;2024-01-06T14:56:04;6.90;99.90
18998;DHT22;9632;51.018;4.284;2024-01-06T14:58:30;7.00;99.90
18998;DHT22;9632;51.018;4.284;2024-01-06T15:00:56;7.00;99.90
18998;DHT22;9632;51.018;4.284;2024-01-06T15:03:21;7.10;99.90
18998;DHT22;9632;51.018;4.284;2024-01-06T15:05:49;7.10;99.90
18998;DHT22;9632;51.018;4.284;2024-01-06T15:08:14;7.20;99.90
18998;DHT22;9632;51.018;4.284;2024-01-06T15:10:40;7.20;99.90
18998;DHT22;9632;51.018;4.284;2024-01-06T15:13:06;7.20;99.90
18998;DHT22;9632;51.018;4.284;2024-01-06T15:15:31;7.30;99.90
18998;DHT22;9632;51.018;4.284;2024-01-06T15:17:57;7.30;99.90
18998;DHT22;9632;51.018;4.284;2024-01-06T15:20:23;7.40;99.90
18998;DHT22;9632;51.018;4.284;2024-01-06T15:22:49;7.40;99.90
18998;DHT22;9632;51.018;4.284;2024-01-06T15:25:15;7.40;99.90
18998;DHT22;9632;51.018;4.284;2024-01-06T15:27:41;7.40;99.90
18998;DHT22;9632;51.018;4.284;2024-01-06T15:30:07;7.50;99.90
18998;DHT22;9632;51.018;4.284;2024-01-06T15:32:37;7.50;99.90
18998;DHT22;9632;51.018;4.284;2024-01-06T15:35:04;7.40;99.90
18998;DHT22;9632;51.018;4.284;2024-01-06T15:37:30;7.40;99.90
18998;DHT22;9632;51.018;4.284;2024-01-06T15:39:57;7.40;99.90
18998;DHT22;9632;51.018;4.284;2024-01-06T15:42:22;7.50;99.90
18998;DHT22;9632;51.018;4.284;2024-01-06T15:44:48;7.50;99.90
18998;DHT22;9632;51.018;4.284;2024-01-06T15:47:14;7.40;99.90
18998;DHT22;9632;51.018;4.284;2024-01-06T15:49:39;7.50;99.90
18998;DHT22;9632;51.018;4.284;2024-01-06T15:52:05;7.40;99.90
18998;DHT22;9632;51.018;4.284;2024-01-06T15:54:33;7.50;99.90
18998;DHT22;9632;51.018;4.284;2024-01-06T15:56:59;7.60;99.90
18998;DHT22;9632;51.018;4.284;2024-01-06T15:59:25;7.50;99.90
18998;DHT22;9632;51.018;4.284;2024-01-06T16:01:51;7.60;99.90
18998;DHT22;9632;51.018;4.284;2024-01-06T16:04:17;7.60;99.90